TimePST,TemperatureF,Dew PointF,Humidity,Sea Level PressureIn,VisibilityMPH,Wind Direction,Wind SpeedMPH,Gust SpeedMPH,PrecipitationIn,Events,Conditions,WindDirDegrees,DateUTC
12:08 AM,42.8,39.2,87,29.98,2.0,Calm,Calm,-,N/A,,Clear,0,2012-11-26 08:08:00
12:26 AM,41.0,39.2,93,29.98,1.5,ESE,4.6,-,N/A,,Clear,120,2012-11-26 08:26:00
12:48 AM,41.0,39.2,93,29.98,2.0,ESE,4.6,-,N/A,,Clear,120,2012-11-26 08:48:00
12:53 AM,41.0,39.0,93,29.99,1.8,ESE,3.5,-,N/A,,Clear,110,2012-11-26 08:53:00
1:42 AM,41.0,39.2,93,29.99,2.5,Calm,Calm,-,N/A,,Clear,0,2012-11-26 09:42:00
1:51 AM,41.0,39.2,93,29.99,1.5,Calm,Calm,-,N/A,,Clear,0,2012-11-26 09:51:00
1:53 AM,41.0,39.9,96,29.99,1.5,Calm,Calm,-,N/A,,Clear,0,2012-11-26 09:53:00
2:33 AM,39.2,37.4,93,30.00,0.5,ESE,3.5,-,N/A,Fog,Fog,110,2012-11-26 10:33:00
2:53 AM,39.0,37.9,96,30.00,0.8,ESE,3.5,-,N/A,,Clear,110,2012-11-26 10:53:00
3:08 AM,39.2,37.4,93,30.00,0.2,ESE,3.5,-,N/A,Fog,Fog,120,2012-11-26 11:08:00
3:39 AM,37.4,37.4,100,30.00,0.5,Calm,Calm,-,N/A,Fog,Fog,0,2012-11-26 11:39:00
3:47 AM,37.4,37.4,100,30.00,0.5,ESE,3.5,-,N/A,Fog,Fog,120,2012-11-26 11:47:00
3:53 AM,39.0,37.9,96,30.01,0.2,ESE,3.5,-,N/A,Fog,Fog,120,2012-11-26 11:53:00
4:03 AM,37.4,37.4,100,30.01,0.8,ESE,4.6,-,N/A,,Overcast,110,2012-11-26 12:03:00
4:17 AM,37.4,37.4,100,30.01,0.2,ESE,3.5,-,N/A,Fog,Fog,120,2012-11-26 12:17:00
4:53 AM,37.9,37.0,97,30.02,0.2,Calm,Calm,-,N/A,Fog,Fog,0,2012-11-26 12:53:00
5:53 AM,37.9,37.9,100,30.03,0.2,Calm,Calm,-,N/A,Fog,Fog,0,2012-11-26 13:53:00
6:53 AM,39.9,39.0,97,30.05,0.2,Calm,Calm,-,N/A,Fog,Fog,0,2012-11-26 14:53:00
7:53 AM,42.1,42.1,100,30.06,0.2,Calm,Calm,-,N/A,Fog,Fog,0,2012-11-26 15:53:00
8:53 AM,45.0,45.0,100,30.07,0.2,Calm,Calm,-,N/A,Fog,Fog,0,2012-11-26 16:53:00
9:53 AM,48.0,48.0,100,30.07,0.2,ESE,3.5,-,N/A,Fog,Fog,110,2012-11-26 17:53:00
10:46 AM,50.0,50.0,100,30.06,0.5,Calm,Calm,-,N/A,Fog,Fog,0,2012-11-26 18:46:00
10:53 AM,51.1,51.1,100,30.06,0.8,East,3.5,-,N/A,,Overcast,100,2012-11-26 18:53:00
11:01 AM,51.8,51.8,100,30.06,1.8,East,3.5,-,N/A,,Mostly Cloudy,90,2012-11-26 19:01:00
11:06 AM,51.8,51.8,100,30.06,2.0,East,4.6,-,N/A,,Scattered Clouds,90,2012-11-26 19:06:00
11:21 AM,55.4,53.6,94,30.05,3.0,East,3.5,-,N/A,,Partly Cloudy,100,2012-11-26 19:21:00
11:53 AM,59.0,51.1,75,30.04,4.0,Calm,Calm,-,N/A,,Haze,0,2012-11-26 19:53:00
12:53 PM,63.0,50.0,63,30.02,6.0,Calm,Calm,-,N/A,,Haze,0,2012-11-26 20:53:00
1:53 PM,64.0,50.0,60,30.01,5.0,Calm,Calm,-,N/A,,Haze,0,2012-11-26 21:53:00
2:53 PM,66.0,48.0,52,30.01,5.0,North,-9999.0,-,N/A,,Haze,0,2012-11-26 22:53:00
3:53 PM,64.9,46.9,52,30.01,6.0,Calm,Calm,-,N/A,,Haze,0,2012-11-26 23:53:00
4:53 PM,59.0,48.9,69,30.01,6.0,Calm,Calm,-,N/A,,Haze,0,2012-11-27 00:53:00
5:53 PM,55.0,48.0,77,30.03,5.0,Calm,Calm,-,N/A,,Haze,0,2012-11-27 01:53:00
6:53 PM,51.1,46.0,83,30.03,5.0,Calm,Calm,-,N/A,,Haze,0,2012-11-27 02:53:00
7:53 PM,50.0,46.0,86,30.04,4.0,Calm,Calm,-,N/A,,Clear,0,2012-11-27 03:53:00
8:53 PM,48.0,45.0,89,30.06,3.0,Calm,Calm,-,N/A,,Clear,0,2012-11-27 04:53:00
9:53 PM,46.9,44.1,90,30.07,1.8,Calm,Calm,-,N/A,,Clear,0,2012-11-27 05:53:00
10:09 PM,46.4,42.8,87,30.06,2.5,Calm,Calm,-,N/A,,Clear,0,2012-11-27 06:09:00
10:36 PM,44.6,42.8,93,30.07,1.5,Calm,Calm,-,N/A,,Clear,0,2012-11-27 06:36:00
10:53 PM,44.1,42.1,93,30.07,1.2,Calm,Calm,-,N/A,,Clear,0,2012-11-27 06:53:00
11:50 PM,44.6,42.8,93,30.07,2.0,Calm,Calm,-,N/A,,Clear,0,2012-11-27 07:50:00
11:53 PM,44.1,41.0,89,30.08,1.8,Calm,Calm,-,N/A,,Clear,0,2012-11-27 07:53:00